sensor_id;sensor_type;location;lat;lon;timestamp;pressure;altitude;pressure_sealevel;temperature;humidity
75219;BME280;63801;49.414;19.474;2022-10-19T00:00:08;94430.03;;;12.90;69.70
75219;BME280;63801;49.414;19.474;2022-10-19T00:02:08;94427.66;;;12.89;69.65
75219;BME280;63801;49.414;19.474;2022-10-19T00:04:09;94418.88;;;12.92;70.04
75219;BME280;63801;49.414;19.474;2022-10-19T00:06:18;94419.28;;;12.94;70.01
75219;BME280;63801;49.414;19.474;2022-10-19T00:08:18;94423.25;;;12.96;69.55
75219;BME280;63801;49.414;19.474;2022-10-19T00:10:19;94431.00;;;12.98;69.81
75219;BME280;63801;49.414;19.474;2022-10-19T00:12:19;94423.31;;;13.00;70.34
75219;BME280;63801;49.414;19.474;2022-10-19T00:14:22;94422.97;;;13.01;70.09
75219;BME280;63801;49.414;19.474;2022-10-19T00:16:24;94426.47;;;13.02;70.09
75219;BME280;63801;49.414;19.474;2022-10-19T00:18:25;94425.00;;;13.04;70.23
75219;BME280;63801;49.414;19.474;2022-10-19T00:20:25;94424.19;;;13.04;70.50
75219;BME280;63801;49.414;19.474;2022-10-19T00:22:25;94419.13;;;13.02;70.51
75219;BME280;63801;49.414;19.474;2022-10-19T00:24:26;94423.75;;;13.02;70.62
75219;BME280;63801;49.414;19.474;2022-10-19T00:26:26;94421.03;;;13.02;70.28
75219;BME280;63801;49.414;19.474;2022-10-19T00:28:27;94420.63;;;13.00;70.43
75219;BME280;63801;49.414;19.474;2022-10-19T00:30:28;94416.34;;;12.99;70.39
75219;BME280;63801;49.414;19.474;2022-10-19T00:32:28;94427.94;;;12.99;70.59
75219;BME280;63801;49.414;19.474;2022-10-19T00:34:29;94425.94;;;12.96;70.51
75219;BME280;63801;49.414;19.474;2022-10-19T00:36:34;94420.06;;;12.94;70.60
75219;BME280;63801;49.414;19.474;2022-10-19T00:38:35;94422.31;;;12.92;70.50
75219;BME280;63801;49.414;19.474;2022-10-19T00:40:39;94422.69;;;12.91;70.57
75219;BME280;63801;49.414;19.474;2022-10-19T00:42:39;94427.31;;;12.90;70.75
75219;BME280;63801;49.414;19.474;2022-10-19T00:46:45;94425.31;;;12.87;70.80
75219;BME280;63801;49.414;19.474;2022-10-19T00:48:47;94431.06;;;12.86;70.92
75219;BME280;63801;49.414;19.474;2022-10-19T00:50:50;94424.31;;;12.80;70.96
75219;BME280;63801;49.414;19.474;2022-10-19T00:52:51;94430.97;;;12.82;71.18
75219;BME280;63801;49.414;19.474;2022-10-19T00:54:53;94432.88;;;12.82;70.99
75219;BME280;63801;49.414;19.474;2022-10-19T00:56:56;94429.38;;;12.81;71.01
75219;BME280;63801;49.414;19.474;2022-10-19T00:58:57;94436.28;;;12.79;71.19
75219;BME280;63801;49.414;19.474;2022-10-19T01:01:00;94432.00;;;12.78;71.14
75219;BME280;63801;49.414;19.474;2022-10-19T01:03:02;94428.03;;;12.75;71.24
75219;BME280;63801;49.414;19.474;2022-10-19T01:05:04;94432.56;;;12.71;71.11
75219;BME280;63801;49.414;19.474;2022-10-19T01:07:06;94415.72;;;12.62;71.40
75219;BME280;63801;49.414;19.474;2022-10-19T01:09:07;94423.16;;;12.65;71.26
75219;BME280;63801;49.414;19.474;2022-10-19T01:11:20;94423.50;;;12.64;71.34
75219;BME280;63801;49.414;19.474;2022-10-19T01:15:47;94426.00;;;12.56;71.34
75219;BME280;63801;49.414;19.474;2022-10-19T01:32:16;94415.44;;;12.39;71.63
75219;BME280;63801;49.414;19.474;2022-10-19T01:34:27;94407.47;;;12.31;71.60
75219;BME280;63801;49.414;19.474;2022-10-19T01:38:53;94402.06;;;12.31;71.61
75219;BME280;63801;49.414;19.474;2022-10-19T01:43:05;94420.53;;;12.41;71.90
75219;BME280;63801;49.414;19.474;2022-10-19T01:45:39;94416.69;;;12.42;71.79
75219;BME280;63801;49.414;19.474;2022-10-19T01:47:46;94413.19;;;12.41;71.88
75219;BME280;63801;49.414;19.474;2022-10-19T01:52:01;94407.00;;;12.41;71.81
75219;BME280;63801;49.414;19.474;2022-10-19T01:54:06;94418.16;;;12.39;71.92
75219;BME280;63801;49.414;19.474;2022-10-19T01:56:09;94416.94;;;12.37;71.80
75219;BME280;63801;49.414;19.474;2022-10-19T01:58:13;94407.59;;;12.34;71.84
75219;BME280;63801;49.414;19.474;2022-10-19T02:00:18;94423.91;;;12.38;71.95
75219;BME280;63801;49.414;19.474;2022-10-19T02:02:21;94416.94;;;12.37;71.83
75219;BME280;63801;49.414;19.474;2022-10-19T02:04:23;94416.13;;;12.36;71.98
75219;BME280;63801;49.414;19.474;2022-10-19T02:06:24;94412.66;;;12.36;71.90
75219;BME280;63801;49.414;19.474;2022-10-19T02:08:33;94416.84;;;12.33;71.99
75219;BME280;63801;49.414;19.474;2022-10-19T02:10:37;94402.53;;;12.33;71.94
75219;BME280;63801;49.414;19.474;2022-10-19T02:12:38;94413.34;;;12.33;72.10
75219;BME280;63801;49.414;19.474;2022-10-19T02:14:43;94412.44;;;12.29;71.87
75219;BME280;63801;49.414;19.474;2022-10-19T02:17:15;94414.94;;;12.22;71.79
75219;BME280;63801;49.414;19.474;2022-10-19T02:19:18;94416.31;;;12.15;71.77
75219;BME280;63801;49.414;19.474;2022-10-19T02:21:19;94417.66;;;12.09;71.70
75219;BME280;63801;49.414;19.474;2022-10-19T02:23:22;94423.75;;;12.06;71.97
75219;BME280;63801;49.414;19.474;2022-10-19T02:25:24;94419.06;;;12.03;72.04
75219;BME280;63801;49.414;19.474;2022-10-19T02:27:25;94424.78;;;12.02;72.05
75219;BME280;63801;49.414;19.474;2022-10-19T02:29:26;94420.16;;;12.02;72.09
75219;BME280;63801;49.414;19.474;2022-10-19T02:31:27;94422.88;;;12.02;72.15
75219;BME280;63801;49.414;19.474;2022-10-19T02:33:27;94412.72;;;11.99;72.03
75219;BME280;63801;49.414;19.474;2022-10-19T02:35:29;94402.59;;;11.96;72.02
75219;BME280;63801;49.414;19.474;2022-10-19T02:37:30;94406.66;;;12.02;72.14
75219;BME280;63801;49.414;19.474;2022-10-19T02:39:31;94413.97;;;12.02;72.08
75219;BME280;63801;49.414;19.474;2022-10-19T02:41:44;94405.88;;;12.02;72.08
75219;BME280;63801;49.414;19.474;2022-10-19T02:43:50;94406.56;;;11.99;72.02
75219;BME280;63801;49.414;19.474;2022-10-19T02:45:59;94401.25;;;12.02;72.12
75219;BME280;63801;49.414;19.474;2022-10-19T02:48:11;94408.25;;;12.03;72.12
75219;BME280;63801;49.414;19.474;2022-10-19T02:50:13;94407.09;;;12.04;72.23
75219;BME280;63801;49.414;19.474;2022-10-19T02:52:13;94403.25;;;12.05;72.25
75219;BME280;63801;49.414;19.474;2022-10-19T02:54:14;94407.53;;;12.06;72.20
75219;BME280;63801;49.414;19.474;2022-10-19T02:56:14;94405.97;;;12.05;72.22
75219;BME280;63801;49.414;19.474;2022-10-19T02:58:14;94405.75;;;11.98;72.73
75219;BME280;63801;49.414;19.474;2022-10-19T03:00:15;94400.91;;;11.92;72.59
75219;BME280;63801;49.414;19.474;2022-10-19T03:02:16;94415.44;;;11.99;72.28
75219;BME280;63801;49.414;19.474;2022-10-19T03:04:17;94396.31;;;11.92;72.47
75219;BME280;63801;49.414;19.474;2022-10-19T03:06:17;94414.31;;;12.00;72.65
75219;BME280;63801;49.414;19.474;2022-10-19T03:08:18;94411.16;;;11.98;72.67
75219;BME280;63801;49.414;19.474;2022-10-19T03:10:18;94413.09;;;11.98;72.77
75219;BME280;63801;49.414;19.474;2022-10-19T03:12:18;94413.41;;;11.96;72.58
75219;BME280;63801;49.414;19.474;2022-10-19T03:14:19;94409.59;;;11.97;72.77
75219;BME280;63801;49.414;19.474;2022-10-19T03:16:19;94407.22;;;11.96;72.51
75219;BME280;63801;49.414;19.474;2022-10-19T03:18:19;94408.81;;;11.97;72.41
75219;BME280;63801;49.414;19.474;2022-10-19T03:20:19;94406.44;;;11.95;72.58
75219;BME280;63801;49.414;19.474;2022-10-19T03:22:20;94400.13;;;11.91;72.57
75219;BME280;63801;49.414;19.474;2022-10-19T03:24:20;94392.25;;;11.86;72.28
75219;BME280;63801;49.414;19.474;2022-10-19T03:26:21;94397.22;;;11.84;72.44
75219;BME280;63801;49.414;19.474;2022-10-19T03:28:21;94386.75;;;11.83;72.62
75219;BME280;63801;49.414;19.474;2022-10-19T03:30:21;94385.53;;;11.80;72.49
75219;BME280;63801;49.414;19.474;2022-10-19T03:32:22;94387.44;;;11.80;72.37
75219;BME280;63801;49.414;19.474;2022-10-19T03:34:22;94384.28;;;11.78;72.38
75219;BME280;63801;49.414;19.474;2022-10-19T03:36:23;94392.75;;;11.76;72.31
75219;BME280;63801;49.414;19.474;2022-10-19T03:38:24;94395.78;;;11.75;72.11
75219;BME280;63801;49.414;19.474;2022-10-19T03:40:24;94393.84;;;11.75;72.22
75219;BME280;63801;49.414;19.474;2022-10-19T03:42:25;94386.44;;;11.72;72.32
75219;BME280;63801;49.414;19.474;2022-10-19T03:44:25;94389.44;;;11.70;72.26
75219;BME280;63801;49.414;19.474;2022-10-19T03:46:26;94384.72;;;11.67;72.32
75219;BME280;63801;49.414;19.474;2022-10-19T03:48:26;94390.47;;;11.66;72.48
75219;BME280;63801;49.414;19.474;2022-10-19T03:50:27;94386.97;;;11.65;72.48
75219;BME280;63801;49.414;19.474;2022-10-19T03:52:27;94376.16;;;11.65;72.56
75219;BME280;63801;49.414;19.474;2022-10-19T03:54:27;94381.56;;;11.65;72.61
75219;BME280;63801;49.414;19.474;2022-10-19T03:56:29;94383.84;;;11.63;72.45
75219;BME280;63801;49.414;19.474;2022-10-19T03:58:34;94384.16;;;11.62;72.45
75219;BME280;63801;49.414;19.474;2022-10-19T04:00:40;94380.66;;;11.61;72.42
75219;BME280;63801;49.414;19.474;2022-10-19T04:02:40;94376.75;;;11.59;72.53
75219;BME280;63801;49.414;19.474;2022-10-19T04:04:41;94389.56;;;11.62;72.62
75219;BME280;63801;49.414;19.474;2022-10-19T04:06:42;94379.56;;;11.62;72.63
75219;BME280;63801;49.414;19.474;2022-10-19T04:08:44;94377.66;;;11.63;72.35
75219;BME280;63801;49.414;19.474;2022-10-19T04:10:47;94382.34;;;11.66;72.45
75219;BME280;63801;49.414;19.474;2022-10-19T04:12:47;94383.94;;;11.67;72.65
75219;BME280;63801;49.414;19.474;2022-10-19T04:14:47;94388.97;;;11.68;72.64
75219;BME280;63801;49.414;19.474;2022-10-19T04:16:47;94386.28;;;11.68;72.67
75219;BME280;63801;49.414;19.474;2022-10-19T04:18:49;94370.66;;;11.62;72.62
75219;BME280;63801;49.414;19.474;2022-10-19T04:21:01;94370.88;;;11.69;72.60
75219;BME280;63801;49.414;19.474;2022-10-19T04:23:02;94379.44;;;11.71;72.53
75219;BME280;63801;49.414;19.474;2022-10-19T04:25:02;94372.94;;;11.72;72.56
75219;BME280;63801;49.414;19.474;2022-10-19T04:27:03;94384.84;;;11.71;72.66
75219;BME280;63801;49.414;19.474;2022-10-19T04:29:03;94381.03;;;11.72;72.73
75219;BME280;63801;49.414;19.474;2022-10-19T04:31:04;94377.84;;;11.70;72.71
75219;BME280;63801;49.414;19.474;2022-10-19T04:33:05;94378.53;;;11.67;72.79
75219;BME280;63801;49.414;19.474;2022-10-19T04:35:06;94376.94;;;11.66;72.88
75219;BME280;63801;49.414;19.474;2022-10-19T04:37:06;94371.34;;;11.59;72.70
75219;BME280;63801;49.414;19.474;2022-10-19T04:39:07;94383.84;;;11.63;72.48
75219;BME280;63801;49.414;19.474;2022-10-19T04:41:10;94380.66;;;11.61;73.03
75219;BME280;63801;49.414;19.474;2022-10-19T04:43:11;94382.94;;;11.59;72.93
75219;BME280;63801;49.414;19.474;2022-10-19T04:45:12;94380.66;;;11.61;72.92
75219;BME280;63801;49.414;19.474;2022-10-19T04:47:12;94378.75;;;11.62;72.90
75219;BME280;63801;49.414;19.474;2022-10-19T04:49:12;94379.56;;;11.62;72.92
75219;BME280;63801;49.414;19.474;2022-10-19T04:51:13;94383.03;;;11.63;72.90
75219;BME280;63801;49.414;19.474;2022-10-19T04:53:14;94383.84;;;11.63;73.22
75219;BME280;63801;49.414;19.474;2022-10-19T04:55:15;94383.03;;;11.63;72.56
75219;BME280;63801;49.414;19.474;2022-10-19T04:57:15;94380.34;;;11.63;72.95
75219;BME280;63801;49.414;19.474;2022-10-19T04:59:15;94376.84;;;11.62;72.88
75219;BME280;63801;49.414;19.474;2022-10-19T05:01:18;94379.88;;;11.61;72.96
75219;BME280;63801;49.414;19.474;2022-10-19T05:03:19;94374.03;;;11.59;72.67
75219;BME280;63801;49.414;19.474;2022-10-19T05:05:19;94377.41;;;11.56;72.71
75219;BME280;63801;49.414;19.474;2022-10-19T05:07:20;94367.19;;;11.49;72.74
75219;BME280;63801;49.414;19.474;2022-10-19T05:09:20;94368.31;;;11.48;72.76
75219;BME280;63801;49.414;19.474;2022-10-19T05:11:20;94375.50;;;11.44;72.75
75219;BME280;63801;49.414;19.474;2022-10-19T05:13:21;94367.53;;;11.36;72.83
75219;BME280;63801;49.414;19.474;2022-10-19T05:15:21;94376.06;;;11.38;72.87
75219;BME280;63801;49.414;19.474;2022-10-19T05:17:22;94366.50;;;11.28;72.99
75219;BME280;63801;49.414;19.474;2022-10-19T05:19:22;94373.94;;;11.31;72.93
75219;BME280;63801;49.414;19.474;2022-10-19T05:21:22;94381.91;;;11.27;72.96
75219;BME280;63801;49.414;19.474;2022-10-19T05:23:23;94384.03;;;11.22;72.93
75219;BME280;63801;49.414;19.474;2022-10-19T05:25:23;94381.56;;;11.17;72.85
75219;BME280;63801;49.414;19.474;2022-10-19T05:27:23;94376.75;;;11.10;73.00
75219;BME280;63801;49.414;19.474;2022-10-19T05:29:24;94380.56;;;11.09;72.98
75219;BME280;63801;49.414;19.474;2022-10-19T05:31:26;94378.97;;;11.08;73.08
75219;BME280;63801;49.414;19.474;2022-10-19T05:33:27;94383.25;;;11.09;73.05
75219;BME280;63801;49.414;19.474;2022-10-19T05:35:27;94379.88;;;11.12;73.39
75219;BME280;63801;49.414;19.474;2022-10-19T05:37:28;94383.25;;;11.21;73.38
75219;BME280;63801;49.414;19.474;2022-10-19T05:39:28;94376.41;;;11.24;73.41
75219;BME280;63801;49.414;19.474;2022-10-19T05:41:28;94375.16;;;11.34;73.21
75219;BME280;63801;49.414;19.474;2022-10-19T05:43:29;94373.13;;;11.43;73.58
75219;BME280;63801;49.414;19.474;2022-10-19T05:45:29;94379.66;;;11.78;74.27
75219;BME280;63801;49.414;19.474;2022-10-19T05:47:29;94382.78;;;12.04;73.60
75219;BME280;63801;49.414;19.474;2022-10-19T05:49:29;94380.94;;;12.21;73.04
75219;BME280;63801;49.414;19.474;2022-10-19T05:51:30;94381.94;;;12.28;72.62
75219;BME280;63801;49.414;19.474;2022-10-19T05:53:31;94382.81;;;12.32;72.29
75219;BME280;63801;49.414;19.474;2022-10-19T05:55:33;94379.78;;;12.34;72.25
75219;BME280;63801;49.414;19.474;2022-10-19T05:57:34;94382.03;;;12.32;72.11
75219;BME280;63801;49.414;19.474;2022-10-19T05:59:35;94394.59;;;12.40;72.19
75219;BME280;63801;49.414;19.474;2022-10-19T06:01:35;94391.56;;;12.41;72.18
75219;BME280;63801;49.414;19.474;2022-10-19T06:03:36;94393.94;;;12.43;71.99
75219;BME280;63801;49.414;19.474;2022-10-19T06:05:36;94391.66;;;12.45;72.39
75219;BME280;63801;49.414;19.474;2022-10-19T06:07:36;94391.75;;;12.48;71.75
75219;BME280;63801;49.414;19.474;2022-10-19T06:09:37;94401.13;;;12.51;71.60
75219;BME280;63801;49.414;19.474;2022-10-19T06:11:39;94399.84;;;12.60;72.30
75219;BME280;63801;49.414;19.474;2022-10-19T06:13:41;94389.19;;;12.95;72.92
75219;BME280;63801;49.414;19.474;2022-10-19T06:15:41;94387.03;;;13.32;72.80
75219;BME280;63801;49.414;19.474;2022-10-19T06:17:41;94391.66;;;13.63;71.22
75219;BME280;63801;49.414;19.474;2022-10-19T06:19:42;94398.53;;;13.76;71.18
75219;BME280;63801;49.414;19.474;2022-10-19T06:21:43;94401.63;;;14.10;71.61
75219;BME280;63801;49.414;19.474;2022-10-19T06:23:49;94405.72;;;14.54;70.94
75219;BME280;63801;49.414;19.474;2022-10-19T06:25:49;94403.06;;;14.77;69.77
75219;BME280;63801;49.414;19.474;2022-10-19T06:27:49;94403.13;;;15.00;69.95
75219;BME280;63801;49.414;19.474;2022-10-19T06:29:50;94394.28;;;15.48;69.34
75219;BME280;63801;49.414;19.474;2022-10-19T06:31:50;94388.78;;;15.67;68.11
75219;BME280;63801;49.414;19.474;2022-10-19T06:33:53;94381.00;;;15.66;67.16
75219;BME280;63801;49.414;19.474;2022-10-19T06:35:53;94383.69;;;15.89;68.61
75219;BME280;63801;49.414;19.474;2022-10-19T06:37:55;94383.81;;;16.55;67.24
75219;BME280;63801;49.414;19.474;2022-10-19T06:39:55;94382.44;;;17.39;67.51
75219;BME280;63801;49.414;19.474;2022-10-19T06:41:56;94392.50;;;18.33;66.33
75219;BME280;63801;49.414;19.474;2022-10-19T06:43:56;94391.75;;;19.19;64.60
75219;BME280;63801;49.414;19.474;2022-10-19T06:45:57;94391.84;;;19.69;60.38
75219;BME280;63801;49.414;19.474;2022-10-19T06:47:58;94388.31;;;19.51;59.28
75219;BME280;63801;49.414;19.474;2022-10-19T06:49:59;94391.69;;;18.98;59.25
75219;BME280;63801;49.414;19.474;2022-10-19T06:52:00;94399.22;;;18.47;60.04
75219;BME280;63801;49.414;19.474;2022-10-19T06:54:00;94408.31;;;18.03;60.75
75219;BME280;63801;49.414;19.474;2022-10-19T06:56:03;94405.63;;;17.63;60.84
75219;BME280;63801;49.414;19.474;2022-10-19T06:58:04;94403.69;;;17.26;61.31
75219;BME280;63801;49.414;19.474;2022-10-19T07:00:05;94416.94;;;16.91;61.74
75219;BME280;63801;49.414;19.474;2022-10-19T07:02:06;94413.75;;;16.55;62.07
75219;BME280;63801;49.414;19.474;2022-10-19T07:04:06;94423.31;;;16.16;61.74
75219;BME280;63801;49.414;19.474;2022-10-19T07:06:08;94428.91;;;15.74;62.19
75219;BME280;63801;49.414;19.474;2022-10-19T07:08:09;94424.81;;;15.42;62.11
75219;BME280;63801;49.414;19.474;2022-10-19T07:10:09;94436.91;;;15.02;62.61
75219;BME280;63801;49.414;19.474;2022-10-19T07:12:09;94428.28;;;14.77;63.35
75219;BME280;63801;49.414;19.474;2022-10-19T07:14:10;94421.56;;;14.52;63.48
75219;BME280;63801;49.414;19.474;2022-10-19T07:16:13;94445.03;;;14.45;63.83
75219;BME280;63801;49.414;19.474;2022-10-19T07:18:13;94449.06;;;14.35;63.79
75219;BME280;63801;49.414;19.474;2022-10-19T07:20:14;94433.97;;;14.18;63.87
75219;BME280;63801;49.414;19.474;2022-10-19T07:22:14;94453.22;;;14.13;63.65
75219;BME280;63801;49.414;19.474;2022-10-19T07:24:15;94446.69;;;13.99;63.88
75219;BME280;63801;49.414;19.474;2022-10-19T07:26:20;94452.22;;;13.86;63.80
75219;BME280;63801;49.414;19.474;2022-10-19T07:28:22;94454.88;;;13.67;63.50
75219;BME280;63801;49.414;19.474;2022-10-19T07:30:23;94459.56;;;13.55;63.70
75219;BME280;63801;49.414;19.474;2022-10-19T07:32:23;94454.84;;;13.36;63.81
75219;BME280;63801;49.414;19.474;2022-10-19T07:34:23;94443.56;;;13.18;63.70
75219;BME280;63801;49.414;19.474;2022-10-19T07:36:25;94443.69;;;13.10;63.97
75219;BME280;63801;49.414;19.474;2022-10-19T07:38:25;94455.09;;;13.03;63.84
75219;BME280;63801;49.414;19.474;2022-10-19T07:40:26;94467.66;;;12.95;64.00
75219;BME280;63801;49.414;19.474;2022-10-19T07:42:27;94471.75;;;12.89;64.13
75219;BME280;63801;49.414;19.474;2022-10-19T07:44:29;94476.28;;;12.85;64.08
75219;BME280;63801;49.414;19.474;2022-10-19T07:46:30;94460.75;;;12.70;63.95
75219;BME280;63801;49.414;19.474;2022-10-19T07:48:36;94473.63;;;12.73;63.99
75219;BME280;63801;49.414;19.474;2022-10-19T07:50:36;94466.44;;;12.65;64.00
75219;BME280;63801;49.414;19.474;2022-10-19T07:52:36;94464.75;;;12.60;64.12
75219;BME280;63801;49.414;19.474;2022-10-19T07:54:37;94468.59;;;12.59;64.26
75219;BME280;63801;49.414;19.474;2022-10-19T07:56:37;94473.19;;;12.59;64.26
75219;BME280;63801;49.414;19.474;2022-10-19T07:58:38;94477.03;;;12.58;64.11
75219;BME280;63801;49.414;19.474;2022-10-19T08:00:39;94476.38;;;12.61;64.31
75219;BME280;63801;49.414;19.474;2022-10-19T08:02:39;94471.25;;;12.99;65.72
75219;BME280;63801;49.414;19.474;2022-10-19T08:04:40;94481.69;;;13.57;64.30
75219;BME280;63801;49.414;19.474;2022-10-19T08:06:40;94478.09;;;13.84;63.66
75219;BME280;63801;49.414;19.474;2022-10-19T08:08:41;94465.50;;;13.91;63.00
75219;BME280;63801;49.414;19.474;2022-10-19T08:10:41;94461.41;;;13.98;62.15
75219;BME280;63801;49.414;19.474;2022-10-19T08:12:42;94460.78;;;13.88;62.07
75219;BME280;63801;49.414;19.474;2022-10-19T08:14:42;94464.28;;;13.89;61.26
75219;BME280;63801;49.414;19.474;2022-10-19T08:16:42;94463.47;;;14.20;63.24
75219;BME280;63801;49.414;19.474;2022-10-19T08:18:43;94457.56;;;15.07;63.17
75219;BME280;63801;49.414;19.474;2022-10-19T08:20:43;94448.97;;;15.89;59.59
75219;BME280;63801;49.414;19.474;2022-10-19T08:22:44;94460.47;;;16.31;59.79
75219;BME280;63801;49.414;19.474;2022-10-19T08:24:45;94455.44;;;16.86;57.94
75219;BME280;63801;49.414;19.474;2022-10-19T08:26:46;94454.38;;;16.97;55.61
75219;BME280;63801;49.414;19.474;2022-10-19T08:28:46;94457.16;;;17.01;56.07
75219;BME280;63801;49.414;19.474;2022-10-19T08:30:47;94443.53;;;17.01;54.25
75219;BME280;63801;49.414;19.474;2022-10-19T08:32:47;94455.63;;;16.74;52.20
75219;BME280;63801;49.414;19.474;2022-10-19T08:34:48;94457.44;;;16.63;51.76
75219;BME280;63801;49.414;19.474;2022-10-19T08:36:48;94448.69;;;16.76;52.89
75219;BME280;63801;49.414;19.474;2022-10-19T08:38:49;94455.84;;;16.91;53.04
75219;BME280;63801;49.414;19.474;2022-10-19T08:40:49;94448.88;;;16.90;52.76
75219;BME280;63801;49.414;19.474;2022-10-19T08:42:59;94438.13;;;16.71;52.31
75219;BME280;63801;49.414;19.474;2022-10-19T08:45:26;94460.16;;;16.63;51.95
75219;BME280;63801;49.414;19.474;2022-10-19T08:47:43;94458.03;;;16.23;50.54
75219;BME280;63801;49.414;19.474;2022-10-19T08:49:47;94466.78;;;15.86;51.96
75219;BME280;63801;49.414;19.474;2022-10-19T08:51:51;94462.41;;;15.59;51.60
75219;BME280;63801;49.414;19.474;2022-10-19T08:53:56;94461.81;;;15.27;51.58
75219;BME280;63801;49.414;19.474;2022-10-19T09:00:54;94453.72;;;15.08;54.11
75219;BME280;63801;49.414;19.474;2022-10-19T09:03:25;94448.41;;;15.15;52.91
75219;BME280;63801;49.414;19.474;2022-10-19T09:07:55;94438.84;;;14.63;51.79
75219;BME280;63801;49.414;19.474;2022-10-19T09:10:03;94429.13;;;14.43;52.66
75219;BME280;63801;49.414;19.474;2022-10-19T09:12:13;94428.25;;;14.39;53.34
75219;BME280;63801;49.414;19.474;2022-10-19T09:17:11;94433.97;;;14.53;53.80
75219;BME280;63801;49.414;19.474;2022-10-19T09:19:25;94416.13;;;14.52;54.02
75219;BME280;63801;49.414;19.474;2022-10-19T09:21:40;94436.72;;;14.72;53.55
75219;BME280;63801;49.414;19.474;2022-10-19T09:25:49;94433.56;;;14.70;53.68
75219;BME280;63801;49.414;19.474;2022-10-19T09:30:22;94421.22;;;14.73;53.97
75219;BME280;63801;49.414;19.474;2022-10-19T09:33:00;94427.47;;;14.96;54.12
75219;BME280;63801;49.414;19.474;2022-10-19T09:35:23;94410.81;;;15.40;54.32
75219;BME280;63801;49.414;19.474;2022-10-19T09:37:25;94416.63;;;15.84;53.53
75219;BME280;63801;49.414;19.474;2022-10-19T09:39:27;94425.13;;;16.05;52.65
75219;BME280;63801;49.414;19.474;2022-10-19T09:41:28;94419.31;;;16.06;53.21
75219;BME280;63801;49.414;19.474;2022-10-19T09:43:28;94436.91;;;16.16;52.72
75219;BME280;63801;49.414;19.474;2022-10-19T09:45:42;94421.25;;;16.06;51.42
75219;BME280;63801;49.414;19.474;2022-10-19T09:47:47;94417.78;;;15.83;52.24
75219;BME280;63801;49.414;19.474;2022-10-19T09:49:47;94428.03;;;15.93;52.95
75219;BME280;63801;49.414;19.474;2022-10-19T09:51:50;94421.91;;;15.99;51.58
75219;BME280;63801;49.414;19.474;2022-10-19T09:53:54;94418.78;;;15.97;52.09
75219;BME280;63801;49.414;19.474;2022-10-19T09:56:03;94424.53;;;16.18;52.64
75219;BME280;63801;49.414;19.474;2022-10-19T09:58:15;94422.47;;;16.38;52.26
75219;BME280;63801;49.414;19.474;2022-10-19T10:00:18;94416.88;;;16.54;51.26
75219;BME280;63801;49.414;19.474;2022-10-19T10:02:39;94420.47;;;16.61;50.26
75219;BME280;63801;49.414;19.474;2022-10-19T10:04:55;94421.31;;;16.66;51.03
75219;BME280;63801;49.414;19.474;2022-10-19T10:06:56;94403.75;;;16.59;50.16
75219;BME280;63801;49.414;19.474;2022-10-19T10:08:57;94418.19;;;16.37;50.10
75219;BME280;63801;49.414;19.474;2022-10-19T10:11:11;94421.03;;;16.18;50.75
75219;BME280;63801;49.414;19.474;2022-10-19T10:13:20;94421.91;;;15.99;50.90
75219;BME280;63801;49.414;19.474;2022-10-19T10:15:24;94419.97;;;15.73;51.01
75219;BME280;63801;49.414;19.474;2022-10-19T10:17:29;94428.91;;;15.51;51.54
75219;BME280;63801;49.414;19.474;2022-10-19T10:19:32;94417.59;;;15.26;51.10
75219;BME280;63801;49.414;19.474;2022-10-19T10:21:52;94411.19;;;14.96;51.16
75219;BME280;63801;49.414;19.474;2022-10-19T10:24:16;94412.50;;;14.64;51.22
75219;BME280;63801;49.414;19.474;2022-10-19T10:26:18;94414.84;;;14.46;51.61
75219;BME280;63801;49.414;19.474;2022-10-19T10:28:21;94417.34;;;14.35;51.86
75219;BME280;63801;49.414;19.474;2022-10-19T10:30:22;94402.94;;;14.16;52.09
75219;BME280;63801;49.414;19.474;2022-10-19T10:32:22;94416.19;;;14.21;52.59
75219;BME280;63801;49.414;19.474;2022-10-19T10:36:52;94412.09;;;14.27;53.15
75219;BME280;63801;49.414;19.474;2022-10-19T10:39:02;94414.38;;;14.25;53.08
75219;BME280;63801;49.414;19.474;2022-10-19T10:41:10;94416.69;;;14.07;53.37
75219;BME280;63801;49.414;19.474;2022-10-19T10:43:15;94415.41;;;13.85;53.72
75219;BME280;63801;49.414;19.474;2022-10-19T10:45:19;94416.41;;;13.62;54.02
75219;BME280;63801;49.414;19.474;2022-10-19T10:47:22;94422.06;;;13.41;54.04
75219;BME280;63801;49.414;19.474;2022-10-19T10:49:25;94431.06;;;13.29;54.51
75219;BME280;63801;49.414;19.474;2022-10-19T10:53:37;94425.88;;;13.09;55.30
75219;BME280;63801;49.414;19.474;2022-10-19T10:55:38;94420.38;;;13.05;55.67
75219;BME280;63801;49.414;19.474;2022-10-19T10:57:48;94424.41;;;13.11;56.15
75219;BME280;63801;49.414;19.474;2022-10-19T11:00:06;94417.78;;;13.24;56.25
75219;BME280;63801;49.414;19.474;2022-10-19T11:04:41;94415.88;;;13.25;56.15
75219;BME280;63801;49.414;19.474;2022-10-19T11:06:51;94413.78;;;13.34;56.27
75219;BME280;63801;49.414;19.474;2022-10-19T11:09:06;94406.28;;;13.27;55.62
75219;BME280;63801;49.414;19.474;2022-10-19T11:11:18;94408.00;;;13.20;55.69
75219;BME280;63801;49.414;19.474;2022-10-19T11:13:40;94422.38;;;13.08;55.46
75219;BME280;63801;49.414;19.474;2022-10-19T11:15:52;94422.44;;;12.96;55.79
75219;BME280;63801;49.414;19.474;2022-10-19T11:18:04;94427.47;;;12.82;55.65
75219;BME280;63801;49.414;19.474;2022-10-19T11:20:13;94426.28;;;12.67;55.92
75219;BME280;63801;49.414;19.474;2022-10-19T11:22:21;94422.94;;;12.58;56.06
75219;BME280;63801;49.414;19.474;2022-10-19T11:26:46;94414.09;;;12.45;56.42
75219;BME280;63801;49.414;19.474;2022-10-19T11:35:57;94407.84;;;12.57;56.45
75219;BME280;63801;49.414;19.474;2022-10-19T11:43:13;94422.53;;;12.44;56.41
75219;BME280;63801;49.414;19.474;2022-10-19T11:45:26;94428.53;;;12.37;56.33